Galt, Canada
Current Conditions -  °F | °C
As of 10:00 PM on Thursday 27 Nov 2014 (Local Time) from CYKF Reporting Station
Clear Clear  
Wind Chill: -12°   Ceiling: Unl
Heat Index: -5°   Visibility: 9mi
Dew Point: -8°   Wind: 14mph
Humidity: 80%   Direction: 310°NW
Pressure: 30.14"   Gusts: 21mph
Location:  43.35°N, 80.3°W
Report Text: CYKF 280300Z AUTO 31012G18KT 9SM CLR M05/M08 A3014 RMK SLP222
Loading
Personal Weather Stations






























Interactive Weather Map New forecast layout! Learn more

10-Day Weather Forecast

Advertisements
Track Severe Weather on mobile